sensor_id;sensor_type;location;lat;lon;timestamp;P1;durP1;ratioP1;P2;durP2;ratioP2
27893;SDS011;15240;50.812;4.792;2023-09-08T00:01:28;18.60;;;14.70;;
27893;SDS011;15240;50.812;4.792;2023-09-08T00:03:55;17.43;;;14.47;;
27893;SDS011;15240;50.812;4.792;2023-09-08T00:06:21;16.30;;;13.90;;
27893;SDS011;15240;50.812;4.792;2023-09-08T00:08:47;16.30;;;13.70;;
27893;SDS011;15240;50.812;4.792;2023-09-08T00:11:13;17.70;;;15.40;;
27893;SDS011;15240;50.812;4.792;2023-09-08T00:13:39;18.63;;;15.80;;
27893;SDS011;15240;50.812;4.792;2023-09-08T00:16:05;19.57;;;16.87;;
27893;SDS011;15240;50.812;4.792;2023-09-08T00:18:32;18.17;;;16.13;;
27893;SDS011;15240;50.812;4.792;2023-09-08T00:20:58;16.77;;;14.67;;
27893;SDS011;15240;50.812;4.792;2023-09-08T00:23:24;16.07;;;14.17;;
27893;SDS011;15240;50.812;4.792;2023-09-08T00:25:52;15.10;;;12.43;;
27893;SDS011;15240;50.812;4.792;2023-09-08T00:28:18;16.43;;;14.10;;
27893;SDS011;15240;50.812;4.792;2023-09-08T00:30:44;15.30;;;12.50;;
27893;SDS011;15240;50.812;4.792;2023-09-08T00:33:10;15.17;;;12.90;;
27893;SDS011;15240;50.812;4.792;2023-09-08T00:35:38;19.27;;;15.40;;
27893;SDS011;15240;50.812;4.792;2023-09-08T00:38:04;19.67;;;15.77;;
27893;SDS011;15240;50.812;4.792;2023-09-08T00:40:30;21.07;;;15.83;;
27893;SDS011;15240;50.812;4.792;2023-09-08T00:42:57;19.60;;;15.83;;
27893;SDS011;15240;50.812;4.792;2023-09-08T00:45:23;19.53;;;15.50;;
27893;SDS011;15240;50.812;4.792;2023-09-08T00:47:52;19.57;;;15.60;;
27893;SDS011;15240;50.812;4.792;2023-09-08T00:50:18;23.27;;;16.80;;
27893;SDS011;15240;50.812;4.792;2023-09-08T00:52:44;21.60;;;16.00;;
27893;SDS011;15240;50.812;4.792;2023-09-08T00:55:10;18.93;;;15.73;;
27893;SDS011;15240;50.812;4.792;2023-09-08T00:57:36;18.77;;;16.33;;
27893;SDS011;15240;50.812;4.792;2023-09-08T01:00:02;17.07;;;14.00;;
27893;SDS011;15240;50.812;4.792;2023-09-08T01:02:31;17.50;;;14.87;;
27893;SDS011;15240;50.812;4.792;2023-09-08T01:04:58;17.00;;;13.87;;
27893;SDS011;15240;50.812;4.792;2023-09-08T01:07:28;15.60;;;12.40;;
27893;SDS011;15240;50.812;4.792;2023-09-08T01:09:56;16.97;;;12.90;;
27893;SDS011;15240;50.812;4.792;2023-09-08T01:12:22;15.17;;;12.50;;
27893;SDS011;15240;50.812;4.792;2023-09-08T01:14:49;14.53;;;11.43;;
27893;SDS011;15240;50.812;4.792;2023-09-08T01:17:15;18.50;;;15.53;;
27893;SDS011;15240;50.812;4.792;2023-09-08T01:19:41;20.00;;;15.27;;
27893;SDS011;15240;50.812;4.792;2023-09-08T01:27:10;17.20;;;13.93;;
27893;SDS011;15240;50.812;4.792;2023-09-08T01:29:39;18.30;;;13.93;;
27893;SDS011;15240;50.812;4.792;2023-09-08T01:32:06;21.20;;;17.13;;
27893;SDS011;15240;50.812;4.792;2023-09-08T01:34:32;21.53;;;15.70;;
27893;SDS011;15240;50.812;4.792;2023-09-08T01:36:58;19.13;;;15.10;;
27893;SDS011;15240;50.812;4.792;2023-09-08T01:39:27;22.93;;;15.63;;
27893;SDS011;15240;50.812;4.792;2023-09-08T01:41:53;17.63;;;13.40;;
27893;SDS011;15240;50.812;4.792;2023-09-08T01:44:19;19.20;;;15.60;;
27893;SDS011;15240;50.812;4.792;2023-09-08T01:46:45;21.87;;;16.47;;
27893;SDS011;15240;50.812;4.792;2023-09-08T01:49:12;20.40;;;15.60;;
27893;SDS011;15240;50.812;4.792;2023-09-08T01:51:38;23.27;;;16.37;;
27893;SDS011;15240;50.812;4.792;2023-09-08T01:54:04;20.30;;;17.40;;
27893;SDS011;15240;50.812;4.792;2023-09-08T01:56:30;20.83;;;17.57;;
27893;SDS011;15240;50.812;4.792;2023-09-08T01:58:56;25.00;;;19.27;;
27893;SDS011;15240;50.812;4.792;2023-09-08T02:01:24;22.47;;;18.93;;
27893;SDS011;15240;50.812;4.792;2023-09-08T02:03:50;24.27;;;19.83;;
27893;SDS011;15240;50.812;4.792;2023-09-08T02:06:16;26.57;;;19.37;;
27893;SDS011;15240;50.812;4.792;2023-09-08T02:08:42;23.17;;;18.13;;
27893;SDS011;15240;50.812;4.792;2023-09-08T02:11:08;24.07;;;18.97;;
27893;SDS011;15240;50.812;4.792;2023-09-08T02:13:34;23.43;;;19.50;;
27893;SDS011;15240;50.812;4.792;2023-09-08T02:16:00;26.30;;;20.80;;
27893;SDS011;15240;50.812;4.792;2023-09-08T02:18:27;24.40;;;20.20;;
27893;SDS011;15240;50.812;4.792;2023-09-08T02:20:53;24.50;;;20.00;;
27893;SDS011;15240;50.812;4.792;2023-09-08T02:23:19;26.20;;;19.87;;
27893;SDS011;15240;50.812;4.792;2023-09-08T02:25:45;27.10;;;21.10;;
27893;SDS011;15240;50.812;4.792;2023-09-08T02:28:11;24.53;;;19.17;;
27893;SDS011;15240;50.812;4.792;2023-09-08T02:30:38;24.13;;;17.73;;
27893;SDS011;15240;50.812;4.792;2023-09-08T02:33:04;27.07;;;20.73;;
27893;SDS011;15240;50.812;4.792;2023-09-08T02:35:30;22.23;;;18.43;;
27893;SDS011;15240;50.812;4.792;2023-09-08T02:37:56;24.67;;;18.90;;
27893;SDS011;15240;50.812;4.792;2023-09-08T02:40:23;27.30;;;19.87;;
27893;SDS011;15240;50.812;4.792;2023-09-08T02:42:49;23.20;;;18.93;;
27893;SDS011;15240;50.812;4.792;2023-09-08T02:45:15;23.73;;;19.90;;
27893;SDS011;15240;50.812;4.792;2023-09-08T02:47:41;24.37;;;20.20;;
27893;SDS011;15240;50.812;4.792;2023-09-08T02:50:07;23.50;;;20.00;;
27893;SDS011;15240;50.812;4.792;2023-09-08T02:52:33;22.90;;;19.97;;
27893;SDS011;15240;50.812;4.792;2023-09-08T02:55:00;25.43;;;20.40;;
27893;SDS011;15240;50.812;4.792;2023-09-08T02:57:26;29.00;;;21.97;;
27893;SDS011;15240;50.812;4.792;2023-09-08T02:59:52;25.20;;;20.50;;
27893;SDS011;15240;50.812;4.792;2023-09-08T03:02:21;27.40;;;22.57;;
27893;SDS011;15240;50.812;4.792;2023-09-08T03:04:48;27.20;;;21.87;;
27893;SDS011;15240;50.812;4.792;2023-09-08T03:07:14;29.57;;;23.00;;
27893;SDS011;15240;50.812;4.792;2023-09-08T03:09:41;20.77;;;17.13;;
27893;SDS011;15240;50.812;4.792;2023-09-08T03:12:07;26.43;;;20.60;;
27893;SDS011;15240;50.812;4.792;2023-09-08T03:14:33;25.90;;;20.17;;
27893;SDS011;15240;50.812;4.792;2023-09-08T03:16:59;27.00;;;22.30;;
27893;SDS011;15240;50.812;4.792;2023-09-08T03:19:25;27.10;;;21.33;;
27893;SDS011;15240;50.812;4.792;2023-09-08T03:21:51;25.37;;;21.20;;
27893;SDS011;15240;50.812;4.792;2023-09-08T03:24:17;24.63;;;18.97;;
27893;SDS011;15240;50.812;4.792;2023-09-08T03:26:43;26.57;;;21.27;;
27893;SDS011;15240;50.812;4.792;2023-09-08T03:29:09;28.57;;;24.27;;
27893;SDS011;15240;50.812;4.792;2023-09-08T03:31:35;29.17;;;22.87;;
27893;SDS011;15240;50.812;4.792;2023-09-08T03:34:02;27.97;;;22.03;;
27893;SDS011;15240;50.812;4.792;2023-09-08T03:36:28;28.47;;;23.07;;
27893;SDS011;15240;50.812;4.792;2023-09-08T03:38:55;29.93;;;23.37;;
27893;SDS011;15240;50.812;4.792;2023-09-08T03:41:23;32.07;;;24.30;;
27893;SDS011;15240;50.812;4.792;2023-09-08T03:43:49;28.43;;;23.83;;
27893;SDS011;15240;50.812;4.792;2023-09-08T03:46:15;31.50;;;24.13;;
27893;SDS011;15240;50.812;4.792;2023-09-08T03:48:42;30.30;;;22.13;;
27893;SDS011;15240;50.812;4.792;2023-09-08T03:51:08;26.60;;;21.37;;
27893;SDS011;15240;50.812;4.792;2023-09-08T03:53:34;29.03;;;22.13;;
27893;SDS011;15240;50.812;4.792;2023-09-08T03:56:00;23.43;;;19.90;;
27893;SDS011;15240;50.812;4.792;2023-09-08T03:58:26;24.27;;;19.87;;
27893;SDS011;15240;50.812;4.792;2023-09-08T04:00:52;25.50;;;20.17;;
27893;SDS011;15240;50.812;4.792;2023-09-08T04:03:18;24.57;;;20.47;;
27893;SDS011;15240;50.812;4.792;2023-09-08T04:05:44;20.47;;;16.63;;
27893;SDS011;15240;50.812;4.792;2023-09-08T04:08:10;25.07;;;19.90;;
27893;SDS011;15240;50.812;4.792;2023-09-08T04:10:36;23.40;;;19.77;;
27893;SDS011;15240;50.812;4.792;2023-09-08T04:13:03;24.93;;;20.83;;
27893;SDS011;15240;50.812;4.792;2023-09-08T04:15:29;31.00;;;23.97;;
27893;SDS011;15240;50.812;4.792;2023-09-08T04:17:55;24.63;;;20.93;;
27893;SDS011;15240;50.812;4.792;2023-09-08T04:20:22;25.90;;;20.60;;
27893;SDS011;15240;50.812;4.792;2023-09-08T04:22:48;23.47;;;19.53;;
27893;SDS011;15240;50.812;4.792;2023-09-08T04:25:14;27.17;;;21.87;;
27893;SDS011;15240;50.812;4.792;2023-09-08T04:27:40;29.70;;;23.40;;
27893;SDS011;15240;50.812;4.792;2023-09-08T04:30:07;29.60;;;23.70;;
27893;SDS011;15240;50.812;4.792;2023-09-08T04:32:33;26.17;;;19.63;;
27893;SDS011;15240;50.812;4.792;2023-09-08T04:34:59;30.07;;;22.67;;
27893;SDS011;15240;50.812;4.792;2023-09-08T04:37:26;22.93;;;19.17;;
27893;SDS011;15240;50.812;4.792;2023-09-08T04:39:52;27.73;;;22.93;;
27893;SDS011;15240;50.812;4.792;2023-09-08T04:42:18;32.60;;;25.50;;
27893;SDS011;15240;50.812;4.792;2023-09-08T04:44:44;27.70;;;22.87;;
27893;SDS011;15240;50.812;4.792;2023-09-08T04:47:10;25.23;;;20.73;;
27893;SDS011;15240;50.812;4.792;2023-09-08T04:49:36;32.93;;;24.67;;
27893;SDS011;15240;50.812;4.792;2023-09-08T04:52:03;31.67;;;25.10;;
27893;SDS011;15240;50.812;4.792;2023-09-08T04:54:29;32.87;;;24.40;;
27893;SDS011;15240;50.812;4.792;2023-09-08T04:56:55;32.40;;;25.37;;
27893;SDS011;15240;50.812;4.792;2023-09-08T04:59:21;29.40;;;24.27;;
27893;SDS011;15240;50.812;4.792;2023-09-08T05:01:48;27.03;;;21.97;;
27893;SDS011;15240;50.812;4.792;2023-09-08T05:04:14;27.30;;;21.93;;
27893;SDS011;15240;50.812;4.792;2023-09-08T05:06:40;26.13;;;20.47;;
27893;SDS011;15240;50.812;4.792;2023-09-08T05:09:06;25.03;;;19.90;;
27893;SDS011;15240;50.812;4.792;2023-09-08T05:11:32;25.77;;;20.40;;
27893;SDS011;15240;50.812;4.792;2023-09-08T05:13:59;22.23;;;18.03;;
27893;SDS011;15240;50.812;4.792;2023-09-08T05:16:25;25.63;;;20.27;;
27893;SDS011;15240;50.812;4.792;2023-09-08T05:19:02;28.80;;;22.40;;
27893;SDS011;15240;50.812;4.792;2023-09-08T05:21:28;28.87;;;23.13;;
27893;SDS011;15240;50.812;4.792;2023-09-08T05:23:54;26.77;;;20.97;;
27893;SDS011;15240;50.812;4.792;2023-09-08T05:26:20;26.03;;;20.27;;
27893;SDS011;15240;50.812;4.792;2023-09-08T05:28:46;30.33;;;22.83;;
27893;SDS011;15240;50.812;4.792;2023-09-08T05:31:12;31.77;;;25.73;;
27893;SDS011;15240;50.812;4.792;2023-09-08T05:33:39;29.87;;;24.37;;
27893;SDS011;15240;50.812;4.792;2023-09-08T05:36:05;33.07;;;25.07;;
27893;SDS011;15240;50.812;4.792;2023-09-08T05:38:31;28.70;;;23.20;;
27893;SDS011;15240;50.812;4.792;2023-09-08T05:40:57;28.47;;;23.03;;
27893;SDS011;15240;50.812;4.792;2023-09-08T05:43:24;27.23;;;22.20;;
27893;SDS011;15240;50.812;4.792;2023-09-08T05:45:51;29.13;;;23.23;;
27893;SDS011;15240;50.812;4.792;2023-09-08T05:48:17;28.83;;;22.33;;
27893;SDS011;15240;50.812;4.792;2023-09-08T05:50:43;24.10;;;20.20;;
27893;SDS011;15240;50.812;4.792;2023-09-08T05:53:09;24.07;;;20.17;;
27893;SDS011;15240;50.812;4.792;2023-09-08T05:55:35;25.73;;;19.83;;
27893;SDS011;15240;50.812;4.792;2023-09-08T05:58:01;25.20;;;21.07;;
27893;SDS011;15240;50.812;4.792;2023-09-08T06:00:27;27.57;;;21.53;;
27893;SDS011;15240;50.812;4.792;2023-09-08T06:02:53;26.07;;;22.00;;
27893;SDS011;15240;50.812;4.792;2023-09-08T06:05:19;27.07;;;21.27;;
27893;SDS011;15240;50.812;4.792;2023-09-08T06:07:46;23.40;;;19.10;;
27893;SDS011;15240;50.812;4.792;2023-09-08T06:10:13;19.67;;;16.80;;
27893;SDS011;15240;50.812;4.792;2023-09-08T06:12:40;17.30;;;14.87;;
27893;SDS011;15240;50.812;4.792;2023-09-08T06:15:06;18.93;;;13.30;;
27893;SDS011;15240;50.812;4.792;2023-09-08T06:17:33;18.77;;;13.33;;
27893;SDS011;15240;50.812;4.792;2023-09-08T06:19:59;14.07;;;12.43;;
27893;SDS011;15240;50.812;4.792;2023-09-08T06:22:25;14.93;;;12.55;;
27893;SDS011;15240;50.812;4.792;2023-09-08T06:24:51;12.15;;;10.95;;
27893;SDS011;15240;50.812;4.792;2023-09-08T06:27:17;13.30;;;11.73;;
27893;SDS011;15240;50.812;4.792;2023-09-08T06:29:43;12.60;;;11.25;;
27893;SDS011;15240;50.812;4.792;2023-09-08T06:32:10;14.00;;;11.32;;
27893;SDS011;15240;50.812;4.792;2023-09-08T06:34:36;12.85;;;11.20;;
27893;SDS011;15240;50.812;4.792;2023-09-08T06:37:02;11.60;;;10.50;;
27893;SDS011;15240;50.812;4.792;2023-09-08T06:39:28;12.75;;;10.43;;
27893;SDS011;15240;50.812;4.792;2023-09-08T06:41:54;15.65;;;10.77;;
27893;SDS011;15240;50.812;4.792;2023-09-08T06:44:20;11.80;;;10.05;;
27893;SDS011;15240;50.812;4.792;2023-09-08T06:46:46;11.80;;;9.57;;
27893;SDS011;15240;50.812;4.792;2023-09-08T06:49:12;11.13;;;9.80;;
27893;SDS011;15240;50.812;4.792;2023-09-08T06:51:39;9.30;;;8.27;;
27893;SDS011;15240;50.812;4.792;2023-09-08T06:54:05;11.90;;;9.88;;
27893;SDS011;15240;50.812;4.792;2023-09-08T06:56:31;11.45;;;10.35;;
27893;SDS011;15240;50.812;4.792;2023-09-08T06:58:57;10.32;;;9.05;;
27893;SDS011;15240;50.812;4.792;2023-09-08T07:01:23;10.23;;;9.23;;
27893;SDS011;15240;50.812;4.792;2023-09-08T07:03:49;10.48;;;9.48;;
27893;SDS011;15240;50.812;4.792;2023-09-08T07:06:16;10.38;;;9.38;;
27893;SDS011;15240;50.812;4.792;2023-09-08T07:08:42;12.07;;;9.02;;
27893;SDS011;15240;50.812;4.792;2023-09-08T07:11:09;11.35;;;9.48;;
27893;SDS011;15240;50.812;4.792;2023-09-08T07:13:35;9.85;;;8.90;;
27893;SDS011;15240;50.812;4.792;2023-09-08T07:16:01;10.55;;;9.50;;
27893;SDS011;15240;50.812;4.792;2023-09-08T07:18:28;10.65;;;8.95;;
27893;SDS011;15240;50.812;4.792;2023-09-08T07:20:57;9.02;;;7.85;;
27893;SDS011;15240;50.812;4.792;2023-09-08T07:23:23;12.00;;;8.90;;
27893;SDS011;15240;50.812;4.792;2023-09-08T07:25:49;9.93;;;8.77;;
27893;SDS011;15240;50.812;4.792;2023-09-08T07:28:16;11.48;;;8.85;;
27893;SDS011;15240;50.812;4.792;2023-09-08T07:30:42;9.60;;;8.52;;
27893;SDS011;15240;50.812;4.792;2023-09-08T07:33:08;12.10;;;8.57;;
27893;SDS011;15240;50.812;4.792;2023-09-08T07:35:38;10.95;;;9.25;;
27893;SDS011;15240;50.812;4.792;2023-09-08T07:38:04;15.30;;;10.52;;
27893;SDS011;15240;50.812;4.792;2023-09-08T07:40:31;12.43;;;10.43;;
27893;SDS011;15240;50.812;4.792;2023-09-08T07:42:58;14.57;;;11.07;;
27893;SDS011;15240;50.812;4.792;2023-09-08T07:45:24;13.80;;;11.68;;
27893;SDS011;15240;50.812;4.792;2023-09-08T07:47:50;13.98;;;11.80;;
27893;SDS011;15240;50.812;4.792;2023-09-08T07:50:20;20.25;;;12.70;;
27893;SDS011;15240;50.812;4.792;2023-09-08T07:52:50;14.18;;;12.63;;
27893;SDS011;15240;50.812;4.792;2023-09-08T07:55:16;13.50;;;12.10;;
27893;SDS011;15240;50.812;4.792;2023-09-08T07:57:43;14.07;;;12.48;;
27893;SDS011;15240;50.812;4.792;2023-09-08T08:00:09;15.57;;;11.15;;
27893;SDS011;15240;50.812;4.792;2023-09-08T08:02:36;12.63;;;9.93;;
27893;SDS011;15240;50.812;4.792;2023-09-08T08:05:02;9.85;;;8.80;;
27893;SDS011;15240;50.812;4.792;2023-09-08T08:07:28;11.63;;;8.68;;
27893;SDS011;15240;50.812;4.792;2023-09-08T08:09:55;10.70;;;8.43;;
27893;SDS011;15240;50.812;4.792;2023-09-08T08:12:21;10.07;;;8.40;;
27893;SDS011;15240;50.812;4.792;2023-09-08T08:14:47;10.82;;;8.32;;
27893;SDS011;15240;50.812;4.792;2023-09-08T08:17:13;8.77;;;7.90;;
27893;SDS011;15240;50.812;4.792;2023-09-08T08:19:42;9.77;;;7.63;;
27893;SDS011;15240;50.812;4.792;2023-09-08T08:22:08;10.63;;;8.48;;
27893;SDS011;15240;50.812;4.792;2023-09-08T08:24:34;11.55;;;8.73;;
27893;SDS011;15240;50.812;4.792;2023-09-08T08:27:00;10.40;;;8.77;;
27893;SDS011;15240;50.812;4.792;2023-09-08T08:29:28;9.23;;;7.55;;
27893;SDS011;15240;50.812;4.792;2023-09-08T08:31:54;8.50;;;7.70;;
27893;SDS011;15240;50.812;4.792;2023-09-08T08:34:20;10.75;;;8.35;;
27893;SDS011;15240;50.812;4.792;2023-09-08T08:36:47;10.77;;;7.88;;
27893;SDS011;15240;50.812;4.792;2023-09-08T08:39:13;10.98;;;8.43;;
27893;SDS011;15240;50.812;4.792;2023-09-08T08:41:40;10.10;;;8.60;;
27893;SDS011;15240;50.812;4.792;2023-09-08T08:44:07;13.80;;;9.15;;
27893;SDS011;15240;50.812;4.792;2023-09-08T08:46:36;10.00;;;9.02;;
27893;SDS011;15240;50.812;4.792;2023-09-08T08:49:03;9.85;;;8.85;;
27893;SDS011;15240;50.812;4.792;2023-09-08T08:51:30;10.02;;;8.63;;
27893;SDS011;15240;50.812;4.792;2023-09-08T08:53:56;10.65;;;7.65;;
27893;SDS011;15240;50.812;4.792;2023-09-08T08:56:23;8.15;;;7.35;;
27893;SDS011;15240;50.812;4.792;2023-09-08T08:58:49;9.77;;;7.40;;
27893;SDS011;15240;50.812;4.792;2023-09-08T09:01:16;8.40;;;7.18;;
27893;SDS011;15240;50.812;4.792;2023-09-08T09:03:44;8.15;;;7.03;;
27893;SDS011;15240;50.812;4.792;2023-09-08T09:06:10;9.77;;;6.80;;
27893;SDS011;15240;50.812;4.792;2023-09-08T09:08:37;8.48;;;7.18;;
27893;SDS011;15240;50.812;4.792;2023-09-08T09:11:04;8.52;;;7.43;;
27893;SDS011;15240;50.812;4.792;2023-09-08T09:13:30;9.43;;;7.15;;
27893;SDS011;15240;50.812;4.792;2023-09-08T09:15:59;8.50;;;7.00;;
27893;SDS011;15240;50.812;4.792;2023-09-08T09:18:28;7.82;;;7.00;;
27893;SDS011;15240;50.812;4.792;2023-09-08T09:20:56;9.10;;;6.80;;
27893;SDS011;15240;50.812;4.792;2023-09-08T09:23:32;8.40;;;7.25;;
27893;SDS011;15240;50.812;4.792;2023-09-08T09:25:59;8.45;;;6.68;;
27893;SDS011;15240;50.812;4.792;2023-09-08T09:28:26;9.25;;;6.55;;
27893;SDS011;15240;50.812;4.792;2023-09-08T09:30:53;7.85;;;6.28;;
27893;SDS011;15240;50.812;4.792;2023-09-08T09:33:19;9.02;;;7.75;;
27893;SDS011;15240;50.812;4.792;2023-09-08T09:35:50;8.35;;;6.88;;
27893;SDS011;15240;50.812;4.792;2023-09-08T09:38:17;8.07;;;6.90;;
27893;SDS011;15240;50.812;4.792;2023-09-08T09:40:44;8.77;;;7.00;;
27893;SDS011;15240;50.812;4.792;2023-09-08T09:43:10;8.57;;;7.28;;
27893;SDS011;15240;50.812;4.792;2023-09-08T09:45:37;10.57;;;7.85;;
27893;SDS011;15240;50.812;4.792;2023-09-08T09:48:04;9.50;;;7.53;;
27893;SDS011;15240;50.812;4.792;2023-09-08T09:50:31;8.43;;;7.35;;
27893;SDS011;15240;50.812;4.792;2023-09-08T09:52:58;8.90;;;8.00;;
27893;SDS011;15240;50.812;4.792;2023-09-08T09:55:25;11.40;;;7.75;;
27893;SDS011;15240;50.812;4.792;2023-09-08T09:57:53;10.20;;;8.82;;
27893;SDS011;15240;50.812;4.792;2023-09-08T10:00:21;10.30;;;7.88;;
27893;SDS011;15240;50.812;4.792;2023-09-08T10:02:47;10.85;;;8.02;;
27893;SDS011;15240;50.812;4.792;2023-09-08T10:05:14;15.20;;;9.02;;
27893;SDS011;15240;50.812;4.792;2023-09-08T10:07:40;13.20;;;8.10;;
27893;SDS011;15240;50.812;4.792;2023-09-08T10:10:07;11.88;;;7.80;;
27893;SDS011;15240;50.812;4.792;2023-09-08T10:12:34;8.70;;;7.63;;
27893;SDS011;15240;50.812;4.792;2023-09-08T10:15:02;10.85;;;7.82;;
27893;SDS011;15240;50.812;4.792;2023-09-08T10:17:30;13.10;;;7.53;;
27893;SDS011;15240;50.812;4.792;2023-09-08T10:19:56;9.63;;;7.43;;
27893;SDS011;15240;50.812;4.792;2023-09-08T10:22:23;9.13;;;7.45;;
27893;SDS011;15240;50.812;4.792;2023-09-08T10:24:53;9.02;;;7.97;;
27893;SDS011;15240;50.812;4.792;2023-09-08T10:27:19;10.13;;;8.55;;
27893;SDS011;15240;50.812;4.792;2023-09-08T10:29:49;10.27;;;7.88;;
27893;SDS011;15240;50.812;4.792;2023-09-08T10:32:15;8.15;;;7.32;;
27893;SDS011;15240;50.812;4.792;2023-09-08T10:34:43;9.05;;;7.65;;
27893;SDS011;15240;50.812;4.792;2023-09-08T10:37:31;10.30;;;7.75;;
27893;SDS011;15240;50.812;4.792;2023-09-08T10:40:20;9.80;;;7.15;;
27893;SDS011;15240;50.812;4.792;2023-09-08T10:42:43;9.82;;;7.03;;
27893;SDS011;15240;50.812;4.792;2023-09-08T10:45:16;11.10;;;7.38;;
27893;SDS011;15240;50.812;4.792;2023-09-08T10:50:18;7.72;;;6.93;;
27893;SDS011;15240;50.812;4.792;2023-09-08T10:52:44;8.93;;;6.65;;
27893;SDS011;15240;50.812;4.792;2023-09-08T10:55:11;8.65;;;6.82;;
27893;SDS011;15240;50.812;4.792;2023-09-08T10:57:44;10.00;;;7.45;;
27893;SDS011;15240;50.812;4.792;2023-09-08T11:00:11;9.88;;;7.35;;
27893;SDS011;15240;50.812;4.792;2023-09-08T11:02:49;9.32;;;7.47;;
27893;SDS011;15240;50.812;4.792;2023-09-08T11:05:16;8.38;;;6.68;;
27893;SDS011;15240;50.812;4.792;2023-09-08T11:07:44;8.20;;;7.18;;
27893;SDS011;15240;50.812;4.792;2023-09-08T11:10:11;8.48;;;6.95;;
27893;SDS011;15240;50.812;4.792;2023-09-08T11:12:37;14.50;;;6.82;;
27893;SDS011;15240;50.812;4.792;2023-09-08T11:15:04;9.25;;;7.18;;
27893;SDS011;15240;50.812;4.792;2023-09-08T11:17:32;8.32;;;6.40;;
27893;SDS011;15240;50.812;4.792;2023-09-08T11:19:59;9.25;;;6.57;;
27893;SDS011;15240;50.812;4.792;2023-09-08T11:22:25;8.50;;;6.70;;
27893;SDS011;15240;50.812;4.792;2023-09-08T11:24:52;9.07;;;7.32;;
27893;SDS011;15240;50.812;4.792;2023-09-08T11:27:19;7.93;;;7.13;;
27893;SDS011;15240;50.812;4.792;2023-09-08T11:29:47;9.30;;;6.47;;
27893;SDS011;15240;50.812;4.792;2023-09-08T11:32:13;8.35;;;6.75;;
27893;SDS011;15240;50.812;4.792;2023-09-08T11:34:39;9.45;;;7.45;;
27893;SDS011;15240;50.812;4.792;2023-09-08T11:37:13;11.57;;;7.32;;
27893;SDS011;15240;50.812;4.792;2023-09-08T11:39:41;10.07;;;6.78;;
27893;SDS011;15240;50.812;4.792;2023-09-08T11:42:07;9.38;;;6.65;;
27893;SDS011;15240;50.812;4.792;2023-09-08T11:44:33;9.85;;;7.03;;
27893;SDS011;15240;50.812;4.792;2023-09-08T11:47:01;9.52;;;7.10;;
27893;SDS011;15240;50.812;4.792;2023-09-08T11:49:32;9.50;;;7.35;;
27893;SDS011;15240;50.812;4.792;2023-09-08T11:52:02;8.88;;;6.85;;
27893;SDS011;15240;50.812;4.792;2023-09-08T11:54:31;11.30;;;7.28;;
27893;SDS011;15240;50.812;4.792;2023-09-08T11:56:59;9.57;;;6.75;;
27893;SDS011;15240;50.812;4.792;2023-09-08T11:59:28;9.13;;;7.50;;
27893;SDS011;15240;50.812;4.792;2023-09-08T12:01:56;8.93;;;7.10;;
27893;SDS011;15240;50.812;4.792;2023-09-08T12:04:23;7.50;;;6.60;;
27893;SDS011;15240;50.812;4.792;2023-09-08T12:06:49;6.75;;;6.05;;
27893;SDS011;15240;50.812;4.792;2023-09-08T12:09:15;7.72;;;6.03;;
27893;SDS011;15240;50.812;4.792;2023-09-08T12:11:41;7.10;;;6.35;;
27893;SDS011;15240;50.812;4.792;2023-09-08T12:14:09;10.52;;;6.43;;
27893;SDS011;15240;50.812;4.792;2023-09-08T12:16:35;9.80;;;6.75;;
27893;SDS011;15240;50.812;4.792;2023-09-08T12:19:01;5.95;;;5.35;;
27893;SDS011;15240;50.812;4.792;2023-09-08T12:21:28;6.20;;;5.10;;
27893;SDS011;15240;50.812;4.792;2023-09-08T12:23:54;6.68;;;5.00;;
27893;SDS011;15240;50.812;4.792;2023-09-08T12:26:20;6.25;;;4.85;;
27893;SDS011;15240;50.812;4.792;2023-09-08T12:28:48;5.90;;;4.55;;
27893;SDS011;15240;50.812;4.792;2023-09-08T12:31:14;12.57;;;4.60;;
27893;SDS011;15240;50.812;4.792;2023-09-08T12:33:44;8.75;;;4.82;;
27893;SDS011;15240;50.812;4.792;2023-09-08T12:36:12;10.18;;;5.25;;
27893;SDS011;15240;50.812;4.792;2023-09-08T12:38:39;9.43;;;4.65;;
27893;SDS011;15240;50.812;4.792;2023-09-08T12:41:07;6.75;;;4.80;;
27893;SDS011;15240;50.812;4.792;2023-09-08T12:43:34;10.55;;;5.15;;
27893;SDS011;15240;50.812;4.792;2023-09-08T12:46:03;9.00;;;5.18;;
27893;SDS011;15240;50.812;4.792;2023-09-08T12:48:29;7.10;;;4.82;;
27893;SDS011;15240;50.812;4.792;2023-09-08T12:50:55;10.85;;;5.15;;
27893;SDS011;15240;50.812;4.792;2023-09-08T12:53:21;12.65;;;5.25;;
27893;SDS011;15240;50.812;4.792;2023-09-08T12:55:48;9.57;;;5.40;;
27893;SDS011;15240;50.812;4.792;2023-09-08T12:58:14;11.35;;;5.43;;
27893;SDS011;15240;50.812;4.792;2023-09-08T13:00:40;10.32;;;5.63;;
27893;SDS011;15240;50.812;4.792;2023-09-08T13:03:06;10.20;;;5.32;;
27893;SDS011;15240;50.812;4.792;2023-09-08T13:05:32;8.10;;;5.55;;
27893;SDS011;15240;50.812;4.792;2023-09-08T13:07:59;7.63;;;5.38;;
27893;SDS011;15240;50.812;4.792;2023-09-08T13:10:26;11.82;;;5.50;;
27893;SDS011;15240;50.812;4.792;2023-09-08T13:12:54;12.73;;;4.88;;
27893;SDS011;15240;50.812;4.792;2023-09-08T13:15:22;11.38;;;5.10;;
27893;SDS011;15240;50.812;4.792;2023-09-08T13:17:48;9.90;;;5.50;;
27893;SDS011;15240;50.812;4.792;2023-09-08T13:20:14;12.35;;;5.38;;
27893;SDS011;15240;50.812;4.792;2023-09-08T13:22:42;10.45;;;5.10;;
27893;SDS011;15240;50.812;4.792;2023-09-08T13:25:09;10.27;;;5.15;;
27893;SDS011;15240;50.812;4.792;2023-09-08T13:27:35;9.75;;;5.20;;
27893;SDS011;15240;50.812;4.792;2023-09-08T13:30:11;11.85;;;5.40;;
27893;SDS011;15240;50.812;4.792;2023-09-08T13:32:37;6.97;;;4.75;;
27893;SDS011;15240;50.812;4.792;2023-09-08T13:35:04;7.80;;;5.32;;
27893;SDS011;15240;50.812;4.792;2023-09-08T13:37:30;11.45;;;5.43;;
27893;SDS011;15240;50.812;4.792;2023-09-08T13:39:56;9.57;;;5.53;;
27893;SDS011;15240;50.812;4.792;2023-09-08T13:42:22;9.50;;;5.00;;
27893;SDS011;15240;50.812;4.792;2023-09-08T13:44:48;10.50;;;5.65;;
27893;SDS011;15240;50.812;4.792;2023-09-08T13:47:14;10.00;;;5.05;;
27893;SDS011;15240;50.812;4.792;2023-09-08T13:49:42;10.73;;;5.40;;
27893;SDS011;15240;50.812;4.792;2023-09-08T13:52:09;9.02;;;5.55;;
27893;SDS011;15240;50.812;4.792;2023-09-08T13:54:37;11.30;;;5.15;;
27893;SDS011;15240;50.812;4.792;2023-09-08T13:57:05;13.60;;;5.00;;
27893;SDS011;15240;50.812;4.792;2023-09-08T13:59:31;6.55;;;4.45;;
27893;SDS011;15240;50.812;4.792;2023-09-08T14:01:58;11.77;;;4.70;;
27893;SDS011;15240;50.812;4.792;2023-09-08T14:04:24;6.82;;;4.70;;
27893;SDS011;15240;50.812;4.792;2023-09-08T14:06:50;10.77;;;4.85;;
27893;SDS011;15240;50.812;4.792;2023-09-08T14:09:16;9.63;;;4.68;;
27893;SDS011;15240;50.812;4.792;2023-09-08T14:11:43;11.98;;;5.20;;
27893;SDS011;15240;50.812;4.792;2023-09-08T14:14:09;9.43;;;4.63;;
27893;SDS011;15240;50.812;4.792;2023-09-08T14:16:35;7.72;;;4.90;;
27893;SDS011;15240;50.812;4.792;2023-09-08T14:19:01;13.27;;;5.03;;
27893;SDS011;15240;50.812;4.792;2023-09-08T14:21:27;11.45;;;4.75;;
27893;SDS011;15240;50.812;4.792;2023-09-08T14:23:53;14.82;;;4.90;;
27893;SDS011;15240;50.812;4.792;2023-09-08T14:26:19;13.57;;;4.95;;
27893;SDS011;15240;50.812;4.792;2023-09-08T14:28:46;14.60;;;4.82;;
27893;SDS011;15240;50.812;4.792;2023-09-08T14:31:12;18.83;;;5.18;;
27893;SDS011;15240;50.812;4.792;2023-09-08T14:33:38;16.33;;;5.00;;
27893;SDS011;15240;50.812;4.792;2023-09-08T14:36:04;15.02;;;5.05;;